Time;durP1;ratioP1;P1;durP2;ratioP2;P2;SDS_P1;SDS_P2;PMS_P1;PMS_P2;Temp;Humidity;BMP_temperature;BMP_pressure;BME280_temperature;BME280_humidity;BME280_pressure;Samples;Min_cycle;Max_cycle;Signal;HPM_P1;HPM_P2
2022/05/01 00:01:41;;;;;;;17.40;14.77;;;9.10;14.70;;;;;;5025528;28;20186;-80
2022/05/01 00:04:08;;;;;;;17.90;13.63;;;9.00;18.50;;;;;;5027940;28;20218;-81
2022/05/01 00:06:34;;;;;;;16.97;14.50;;;9.10;19.10;;;;;;5019626;28;20181;-83
2022/05/01 00:09:00;;;;;;;18.93;15.53;;;9.00;19.60;;;;;;5015497;28;20253;-83
2022/05/01 00:11:27;;;;;;;15.50;13.90;;;8.90;22.50;;;;;;5016276;28;20193;-80
2022/05/01 00:13:52;;;;;;;16.40;14.53;;;8.80;24.10;;;;;;5037436;28;20182;-82
2022/05/01 00:16:18;;;;;;;19.07;15.37;;;8.80;26.90;;;;;;5036876;28;20271;-81
2022/05/01 00:18:47;;;;;;;17.50;15.67;;;8.90;25.40;;;;;;5035680;28;20178;-83
2022/05/01 00:21:12;;;;;;;18.30;15.33;;;8.90;23.10;;;;;;5037250;28;20196;-84
2022/05/01 00:23:38;;;;;;;17.00;14.93;;;8.90;22.90;;;;;;5044630;28;20677;-81
2022/05/01 00:26:06;;;;;;;19.93;15.87;;;8.90;24.20;;;;;;5040438;28;20175;-81
2022/05/01 00:28:36;;;;;;;20.57;15.13;;;8.90;25.30;;;;;;5028120;28;20202;-83
2022/05/01 00:31:05;;;;;;;19.13;17.10;;;8.90;24.20;;;;;;5027704;28;20181;-82
2022/05/01 00:36:28;;;;;;;20.47;16.93;;;8.90;25.60;;;;;;5020940;28;20220;-83
2022/05/01 00:38:54;;;;;;;19.83;17.67;;;9.00;26.30;;;;;;5019202;28;20208;-82
2022/05/01 00:41:23;;;;;;;23.60;18.43;;;9.30;23.90;;;;;;5017917;28;20166;-82
2022/05/01 00:44:15;;;;;;;19.60;16.50;;;9.20;22.40;;;;;;5036539;28;20205;-83
2022/05/01 00:46:52;;;;;;;20.43;17.27;;;9.10;20.20;;;;;;5035943;28;20154;-82
2022/05/01 00:49:22;;;;;;;23.23;17.37;;;9.10;20.90;;;;;;5036422;28;20649;-82
2022/05/01 00:51:56;;;;;;;19.30;16.77;;;9.30;22.20;;;;;;5036357;28;20169;-82
2022/05/01 00:54:27;;;;;;;25.83;18.70;;;9.40;19.90;;;;;;5036280;28;20638;-82
2022/05/01 00:56:59;;;;;;;20.03;17.00;;;9.50;17.30;;;;;;5036160;28;20238;-82
2022/05/01 00:59:26;;;;;;;22.90;17.90;;;9.50;15.10;;;;;;5033616;28;20249;-83
2022/05/01 01:01:53;;;;;;;23.33;18.30;;;9.40;12.80;;;;;;5015582;28;20197;-83
2022/05/01 01:04:19;;;;;;;21.93;18.83;;;9.50;13.10;;;;;;5016160;28;20638;-82
2022/05/01 01:06:45;;;;;;;23.13;20.37;;;9.30;13.00;;;;;;5015842;28;20174;-83
2022/05/01 01:09:11;;;;;;;22.37;19.23;;;9.10;15.70;;;;;;5016322;28;20253;-83
2022/05/01 01:11:38;;;;;;;23.00;19.97;;;9.10;19.70;;;;;;5021652;28;20174;-78
2022/05/01 01:14:05;;;;;;;23.20;19.67;;;9.00;21.00;;;;;;5052473;28;20251;-81
2022/05/01 01:16:36;;;;;;;26.77;19.57;;;9.00;22.30;;;;;;5054899;28;20212;-83
2022/05/01 01:19:04;;;;;;;25.77;20.00;;;8.80;27.20;;;;;;5055388;28;20723;-83
2022/05/01 01:21:30;;;;;;;23.27;19.30;;;8.90;29.60;;;;;;5046441;28;20173;-82
2022/05/01 01:23:57;;;;;;;24.30;19.87;;;8.70;30.00;;;;;;5029393;28;20252;-82
2022/05/01 01:26:23;;;;;;;25.03;20.67;;;8.70;34.70;;;;;;5015494;28;20158;-79
2022/05/01 01:28:50;;;;;;;24.13;20.37;;;8.70;33.50;;;;;;5014984;28;20539;-83
2022/05/01 01:34:06;;;;;;;24.57;21.80;;;8.60;40.10;;;;;;5015356;28;20610;-83
2022/05/01 01:36:35;;;;;;;28.03;22.13;;;8.60;40.40;;;;;;5015723;28;20167;-81
2022/05/01 01:39:00;;;;;;;28.53;23.50;;;8.50;40.40;;;;;;5015630;28;20217;-81
2022/05/01 01:41:30;;;;;;;25.53;21.43;;;8.50;45.70;;;;;;5015542;28;20174;-84
2022/05/01 01:43:57;;;;;;;25.93;23.07;;;8.50;45.20;;;;;;5029560;28;20205;-84
2022/05/01 01:46:23;;;;;;;26.87;21.87;;;8.50;49.60;;;;;;5016154;28;20171;-82
2022/05/01 01:48:50;;;;;;;28.37;22.73;;;8.50;50.60;;;;;;5015590;28;20175;-83
2022/05/01 01:51:17;;;;;;;25.57;22.50;;;8.40;50.90;;;;;;5025080;28;20258;-82
2022/05/01 01:53:43;;;;;;;30.33;24.83;;;8.40;51.90;;;;;;5016049;28;20197;-81
2022/05/01 01:56:10;;;;;;;30.17;24.40;;;8.50;53.10;;;;;;5015674;28;20181;-82
2022/05/01 01:58:38;;;;;;;32.60;23.97;;;8.60;52.10;;;;;;5015486;28;20182;-83
2022/05/01 02:01:06;;;;;;;27.53;23.90;;;8.50;50.50;;;;;;5030844;28;20190;-82
2022/05/01 02:03:33;;;;;;;28.87;24.37;;;8.60;50.40;;;;;;5043881;28;20213;-82
2022/05/01 02:05:59;;;;;;;33.03;25.53;;;8.50;49.80;;;;;;5050317;28;20153;-82
2022/05/01 02:08:26;;;;;;;29.43;23.70;;;8.60;49.90;;;;;;5054632;28;20181;-81
2022/05/01 02:10:52;;;;;;;31.13;24.87;;;8.70;47.80;;;;;;5051108;28;20170;-82
2022/05/01 02:13:18;;;;;;;31.93;25.00;;;8.80;46.50;;;;;;5040708;28;20186;-78
2022/05/01 02:15:45;;;;;;;36.10;25.30;;;8.70;45.50;;;;;;5042989;28;20257;-82
2022/05/01 02:18:11;;;;;;;29.37;24.30;;;8.60;46.90;;;;;;5039203;28;20169;-82
2022/05/01 02:23:24;;;;;;;28.60;24.03;;;8.40;52.40;;;;;;5034960;28;20235;-83
2022/05/01 02:25:50;;;;;;;30.40;23.87;;;8.50;54.10;;;;;;5018227;28;20186;-83
2022/05/01 02:28:16;;;;;;;31.87;25.73;;;8.50;51.50;;;;;;5034354;28;20192;-82
2022/05/01 02:30:42;;;;;;;30.93;24.63;;;8.60;52.30;;;;;;5034461;28;20169;-80
2022/05/01 02:33:09;;;;;;;24.90;20.47;;;8.80;51.50;;;;;;5033967;28;20178;-82
2022/05/01 02:35:35;;;;;;;23.43;20.23;;;8.90;48.80;;;;;;5029325;28;20261;-81
2022/05/01 02:38:04;;;;;;;23.20;20.73;;;9.00;44.40;;;;;;5013485;28;20179;-81
2022/05/01 02:40:33;;;;;;;30.03;24.37;;;9.10;38.60;;;;;;5014068;28;20249;-82
2022/05/01 02:43:00;;;;;;;28.57;24.23;;;9.20;35.60;;;;;;5019274;28;20202;-81
2022/05/01 02:45:29;;;;;;;29.40;24.67;;;9.30;32.50;;;;;;5044892;28;20153;-81
2022/05/01 02:47:55;;;;;;;25.93;22.37;;;9.30;30.40;;;;;;5050755;28;20204;-81
2022/05/01 02:50:22;;;;;;;28.37;22.17;;;9.40;28.30;;;;;;5050766;28;20179;-80
2022/05/01 02:52:51;;;;;;;23.50;21.00;;;9.40;26.30;;;;;;5052651;28;20237;-82
2022/05/01 02:55:17;;;;;;;24.47;19.60;;;9.50;24.00;;;;;;5050218;28;20171;-81
2022/05/01 02:57:43;;;;;;;20.77;18.00;;;9.50;22.30;;;;;;5032784;28;20194;-82
2022/05/01 03:00:16;;;;;;;23.57;18.70;;;9.50;20.90;;;;;;5041733;28;20185;-83
2022/05/01 03:02:43;;;;;;;21.53;18.73;;;9.40;17.40;;;;;;5043327;28;20208;-82
2022/05/01 03:05:09;;;;;;;21.63;17.70;;;9.40;14.20;;;;;;5052721;28;20233;-83
2022/05/01 03:07:35;;;;;;;22.80;18.77;;;9.40;11.80;;;;;;5054521;28;20650;-82
2022/05/01 03:10:00;;;;;;;22.43;19.03;;;9.40;11.00;;;;;;5054141;28;20158;-80
2022/05/01 03:12:26;;;;;;;24.20;17.70;;;9.30;9.60;;;;;;5053133;28;20196;-82
2022/05/01 03:14:51;;;;;;;20.43;17.77;;;9.40;9.10;;;;;;5054879;28;20162;-79
2022/05/01 03:17:17;;;;;;;21.17;18.23;;;9.30;8.50;;;;;;5053336;28;20189;-79
2022/05/01 03:22:32;;;;;;;21.33;17.70;;;9.40;3.10;;;;;;5015002;28;20342;-83
2022/05/01 03:24:58;;;;;;;21.93;17.63;;;9.30;1.00;;;;;;5015248;28;20174;-81
2022/05/01 03:27:23;;;;;;;22.00;17.87;;;9.40;1.00;;;;;;5015323;28;20300;-82
2022/05/01 03:32:35;;;;;;;20.33;16.90;;;9.10;1.00;;;;;;5036276;28;20177;-81
2022/05/01 03:35:03;;;;;;;22.27;17.23;;;8.90;2.10;;;;;;5040866;28;20223;-83
2022/05/01 03:37:29;;;;;;;19.90;16.77;;;8.90;6.10;;;;;;5040483;28;20169;-83
2022/05/01 03:39:55;;;;;;;21.30;17.47;;;8.80;7.40;;;;;;5033866;28;20224;-83
2022/05/01 03:42:20;;;;;;;19.77;17.47;;;8.80;3.70;;;;;;5034617;28;20193;-81
2022/05/01 03:44:52;;;;;;;18.87;16.87;;;8.80;4.50;;;;;;5034975;28;20657;-79
2022/05/01 03:47:19;;;;;;;19.43;17.30;;;8.70;9.40;;;;;;5036098;28;20192;-82
2022/05/01 03:49:44;;;;;;;21.83;18.43;;;8.50;13.70;;;;;;5038876;28;20173;-80
2022/05/01 03:52:10;;;;;;;20.23;18.10;;;8.40;17.20;;;;;;5040679;28;20217;-82
2022/05/01 03:54:38;;;;;;;20.23;17.70;;;8.50;18.60;;;;;;5050492;28;20165;-81
2022/05/01 03:57:05;;;;;;;19.37;17.37;;;8.40;19.60;;;;;;5058426;28;20632;-81
2022/05/01 03:59:30;;;;;;;20.77;18.23;;;8.30;19.70;;;;;;5044568;28;20193;-81
2022/05/01 04:01:56;;;;;;;19.77;16.87;;;8.30;20.10;;;;;;5049162;28;20229;-80
2022/05/01 04:04:22;;;;;;;18.80;16.80;;;8.10;21.30;;;;;;5039390;28;20197;-81
2022/05/01 04:06:49;;;;;;;21.10;17.43;;;8.10;22.90;;;;;;5036007;28;20174;-82
2022/05/01 04:09:18;;;;;;;20.10;18.00;;;8.30;23.20;;;;;;5023043;28;20180;-83
2022/05/01 04:11:47;;;;;;;20.57;17.43;;;8.20;22.60;;;;;;5039870;28;20228;-82
2022/05/01 04:14:22;;;;;;;20.17;17.97;;;8.30;20.80;;;;;;5040009;28;20212;-82
2022/05/01 04:16:50;;;;;;;23.33;17.83;;;8.20;20.00;;;;;;5035806;28;20196;-77
2022/05/01 04:19:16;;;;;;;20.33;17.30;;;8.30;18.30;;;;;;5037065;28;20158;-82
2022/05/01 04:21:41;;;;;;;21.13;18.90;;;8.40;16.90;;;;;;5042586;28;20205;-82
2022/05/01 04:24:07;;;;;;;24.90;19.33;;;8.20;15.50;;;;;;5043596;28;20202;-81
2022/05/01 04:26:33;;;;;;;22.43;18.60;;;8.10;17.60;;;;;;5041395;28;20174;-80
2022/05/01 04:31:43;;;;;;;21.57;19.33;;;8.00;23.50;;;;;;5036205;28;20235;-82
2022/05/01 04:34:09;;;;;;;26.67;20.23;;;7.80;27.80;;;;;;5035832;28;20260;-82
2022/05/01 04:36:35;;;;;;;22.53;19.77;;;7.90;28.80;;;;;;5036091;28;20176;-82
2022/05/01 04:39:01;;;;;;;21.60;19.30;;;7.80;28.30;;;;;;5051480;28;20170;-82
2022/05/01 04:41:26;;;;;;;21.73;19.10;;;7.90;28.30;;;;;;5036138;28;20180;-82
2022/05/01 04:43:52;;;;;;;22.93;18.80;;;8.10;27.20;;;;;;5036392;28;20267;-82
2022/05/01 04:46:18;;;;;;;21.67;19.20;;;8.10;25.30;;;;;;5036140;28;20170;-82
2022/05/01 04:48:44;;;;;;;23.37;19.47;;;8.20;24.60;;;;;;5036058;28;20169;-82
2022/05/01 04:51:10;;;;;;;23.17;19.40;;;8.20;23.90;;;;;;5036190;28;20174;-83
2022/05/01 04:53:35;;;;;;;23.87;19.13;;;8.40;20.70;;;;;;5035690;28;20176;-83
2022/05/01 04:57:05;;;;;;;23.70;20.53;;;8.60;16.00;;;;;;5036017;28;20608;-82
2022/05/01 04:58:47;;;;;;;23.17;19.63;;;8.50;13.10;;;;;;5020676;28;20608;-83
2022/05/01 05:01:13;;;;;;;23.33;19.60;;;8.50;12.30;;;;;;5016048;28;20638;-81
2022/05/01 05:03:39;;;;;;;22.17;18.60;;;8.50;11.40;;;;;;5017942;28;20281;-82
2022/05/01 05:06:05;;;;;;;23.90;19.30;;;8.50;10.80;;;;;;5017625;28;20646;-81
2022/05/01 05:11:14;;;;;;;22.27;19.30;;;8.60;11.80;;;;;;5019633;28;20588;-82
2022/05/01 05:13:40;;;;;;;24.10;20.23;;;8.60;11.30;;;;;;5018673;28;20170;-83
2022/05/01 05:16:12;;;;;;;22.93;19.97;;;8.80;7.70;;;;;;5044155;28;20705;-83
2022/05/01 05:18:42;;;;;;;22.70;20.27;;;9.00;1.00;;;;;;5048702;28;20253;-78
2022/05/01 05:21:07;;;;;;;24.87;19.80;;;9.20;1.00;;;;;;5054419;28;20166;-84
2022/05/01 05:23:34;;;;;;;21.93;19.50;;;9.20;1.00;;;;;;5038933;28;20267;-82
2022/05/01 05:25:59;;;;;;;25.80;20.87;;;9.40;1.00;;;;;;5035777;28;20536;-83
2022/05/01 05:28:25;;;;;;;23.73;20.27;;;9.40;1.00;;;;;;5035498;28;20180;-82
2022/05/01 05:30:52;;;;;;;22.67;20.27;;;9.30;1.00;;;;;;5035335;28;20166;-82
2022/05/01 05:33:24;;;;;;;24.67;20.07;;;9.20;1.00;;;;;;5036498;28;20178;-81
2022/05/01 05:35:51;;;;;;;22.63;20.20;;;9.10;1.00;;;;;;5042396;28;20229;-82
2022/05/01 05:38:17;;;;;;;22.77;20.43;;;9.20;1.00;;;;;;5041409;28;20173;-81
2022/05/01 05:40:44;;;;;;;23.77;20.63;;;9.20;1.00;;;;;;5035166;28;20180;-80
2022/05/01 05:43:10;;;;;;;25.77;20.70;;;9.30;1.00;;;;;;5034978;28;20198;-82
2022/05/01 05:45:37;;;;;;;26.20;22.83;;;9.50;1.00;;;;;;5034285;28;20188;-80
2022/05/01 05:48:03;;;;;;;25.40;22.73;;;9.60;1.00;;;;;;5034735;28;20528;-82
2022/05/01 05:50:29;;;;;;;23.73;21.17;;;9.70;1.00;;;;;;5031136;28;20175;-80
2022/05/01 05:52:55;;;;;;;25.10;21.97;;;9.90;1.00;;;;;;5034130;28;20249;-83
2022/05/01 05:55:20;;;;;;;26.47;22.10;;;9.90;1.00;;;;;;5034991;28;20177;-81
2022/05/01 05:57:46;;;;;;;26.10;23.27;;;10.00;1.00;;;;;;5030583;28;20566;-80
2022/05/01 06:00:12;;;;;;;26.83;22.20;;;9.90;1.00;;;;;;5023683;28;20174;-82
2022/05/01 06:02:38;;;;;;;26.13;22.13;;;9.80;1.00;;;;;;5034297;28;20300;-81
2022/05/01 06:05:04;;;;;;;26.30;23.43;;;9.70;1.00;;;;;;5034081;28;20249;-82
2022/05/01 06:07:30;;;;;;;26.10;23.13;;;9.90;1.00;;;;;;5034420;28;20208;-83
2022/05/01 06:09:55;;;;;;;27.23;23.67;;;10.00;1.00;;;;;;5035606;28;20161;-79
2022/05/01 06:12:21;;;;;;;27.87;24.40;;;10.10;1.00;;;;;;5035608;28;20169;-81
2022/05/01 06:14:47;;;;;;;27.63;24.30;;;10.20;1.00;;;;;;5034368;28;20181;-81
2022/05/01 06:17:12;;;;;;;26.17;23.37;;;10.30;1.00;;;;;;5034331;28;20197;-83
2022/05/01 06:19:39;;;;;;;25.93;23.27;;;10.50;1.00;;;;;;5034030;28;20173;-82
2022/05/01 06:22:05;;;;;;;27.33;24.13;;;10.70;1.00;;;;;;5034019;28;20644;-81
2022/05/01 06:24:31;;;;;;;27.43;23.03;;;10.70;1.00;;;;;;5034274;28;20307;-83
2022/05/01 06:26:58;;;;;;;26.83;23.73;;;10.90;1.00;;;;;;5016649;28;20202;-85
2022/05/01 06:29:23;;;;;;;29.67;24.00;;;11.00;1.00;;;;;;5015308;28;20162;-82
2022/05/01 06:31:50;;;;;;;28.10;24.90;;;10.90;1.00;;;;;;5022086;28;20173;-81
2022/05/01 06:34:15;;;;;;;27.30;24.27;;;10.90;1.00;;;;;;5020950;28;20181;-82
2022/05/01 06:36:42;;;;;;;29.57;26.30;;;11.10;1.00;;;;;;5019619;28;20238;-80
2022/05/01 06:39:11;;;;;;;29.70;25.93;;;11.10;1.00;;;;;;5023399;28;20197;-81
2022/05/01 06:41:37;;;;;;;30.63;26.77;;;11.30;1.00;;;;;;5024325;28;20178;-80
2022/05/01 06:44:03;;;;;;;30.60;26.40;;;11.40;1.00;;;;;;5020919;28;20736;-81
2022/05/01 06:46:29;;;;;;;33.77;27.23;;;11.40;1.00;;;;;;5044872;28;20252;-83
2022/05/01 06:48:55;;;;;;;29.33;26.00;;;11.30;1.00;;;;;;5048526;28;20228;-81
2022/05/01 06:51:20;;;;;;;29.47;26.27;;;11.10;1.00;;;;;;5048928;28;20166;-83
2022/05/01 06:53:47;;;;;;;32.90;27.33;;;11.40;1.00;;;;;;5032544;28;20705;-82
2022/05/01 06:56:12;;;;;;;30.97;25.93;;;11.40;1.00;;;;;;5015557;28;20265;-83
2022/05/01 06:58:39;;;;;;;30.73;25.80;;;11.30;1.00;;;;;;5014602;28;20209;-82
2022/05/01 07:01:07;;;;;;;28.53;24.93;;;11.10;1.00;;;;;;5031995;28;20189;-82
2022/05/01 07:03:33;;;;;;;28.17;23.93;;;11.20;1.00;;;;;;5033879;28;20217;-82
2022/05/01 07:06:02;;;;;;;26.03;22.57;;;11.20;1.00;;;;;;5034592;28;20177;-82
2022/05/01 07:08:29;;;;;;;29.63;24.47;;;11.00;1.00;;;;;;5034429;28;20162;-82
2022/05/01 07:10:55;;;;;;;31.20;26.10;;;11.00;1.00;;;;;;5034138;28;20154;-82
2022/05/01 07:13:20;;;;;;;31.30;25.57;;;10.90;1.00;;;;;;5034211;28;20172;-82
2022/05/01 07:15:46;;;;;;;30.43;26.33;;;10.90;1.00;;;;;;5021225;28;20277;-81
2022/05/01 07:18:12;;;;;;;30.77;25.97;;;10.80;1.00;;;;;;5014262;28;20176;-83
2022/05/01 07:20:39;;;;;;;36.53;29.40;;;10.90;1.00;;;;;;5014453;28;20237;-83
2022/05/01 07:23:06;;;;;;;30.93;26.10;;;11.10;1.00;;;;;;5019089;28;20209;-82
2022/05/01 07:25:32;;;;;;;34.47;26.77;;;11.20;1.00;;;;;;5013501;28;20559;-83
2022/05/01 07:27:58;;;;;;;28.90;25.83;;;11.30;1.00;;;;;;5013692;28;20269;-82
2022/05/01 07:30:24;;;;;;;29.23;24.57;;;11.60;1.00;;;;;;5013992;28;20639;-83
2022/05/01 07:32:50;;;;;;;27.77;22.50;;;11.40;1.00;;;;;;5013612;28;20182;-82
2022/05/01 07:35:15;;;;;;;27.33;23.50;;;11.40;1.00;;;;;;5028065;28;20226;-79
2022/05/01 07:37:41;;;;;;;26.23;22.60;;;11.20;1.00;;;;;;5053510;28;20173;-81
2022/05/01 07:40:08;;;;;;;29.97;24.07;;;11.20;1.00;;;;;;5046341;28;20170;-84
2022/05/01 07:42:34;;;;;;;27.90;23.50;;;11.20;1.00;;;;;;5013698;28;20241;-80
2022/05/01 07:45:00;;;;;;;28.70;23.40;;;11.10;1.00;;;;;;5023792;28;20201;-82
2022/05/01 07:47:25;;;;;;;27.47;23.70;;;11.40;1.00;;;;;;5050428;28;20168;-83
2022/05/01 07:49:51;;;;;;;28.83;23.43;;;11.50;1.00;;;;;;5014608;28;20174;-82
2022/05/01 07:52:17;;;;;;;28.33;23.77;;;11.40;1.00;;;;;;5012434;28;20644;-81
2022/05/01 07:54:43;;;;;;;26.53;23.17;;;11.50;1.00;;;;;;5013471;28;20194;-81
2022/05/01 07:57:09;;;;;;;21.47;19.17;;;11.60;1.00;;;;;;5014134;28;20174;-81
2022/05/01 07:59:34;;;;;;;22.70;18.63;;;11.70;1.00;;;;;;5015859;28;20170;-80
2022/05/01 08:02:00;;;;;;;19.83;15.77;;;11.80;1.00;;;;;;5029665;28;20221;-82
2022/05/01 08:04:29;;;;;;;16.53;14.00;;;11.70;1.00;;;;;;5022600;28;20681;-83
2022/05/01 08:06:59;;;;;;;19.53;15.87;;;11.60;1.00;;;;;;5025640;28;20237;-81
2022/05/01 08:09:27;;;;;;;20.90;16.43;;;11.50;1.00;;;;;;5034141;28;20209;-83
2022/05/01 08:11:53;;;;;;;19.63;14.90;;;11.70;1.00;;;;;;5048991;28;20296;-82
2022/05/01 08:14:21;;;;;;;22.33;18.17;;;11.90;1.00;;;;;;5033813;28;20177;-82
2022/05/01 08:16:47;;;;;;;19.33;17.23;;;11.90;1.00;;;;;;5033626;28;20927;-83
2022/05/01 08:21:57;;;;;;;19.17;14.23;;;11.90;1.00;;;;;;5034531;28;20180;-81
2022/05/01 08:24:22;;;;;;;18.63;16.63;;;12.10;1.00;;;;;;5033632;28;20202;-83
2022/05/01 08:26:48;;;;;;;21.53;15.70;;;12.10;1.00;;;;;;5033999;28;20530;-81
2022/05/01 08:29:15;;;;;;;21.67;17.07;;;12.10;1.00;;;;;;5019170;28;20629;-83
2022/05/01 08:31:42;;;;;;;21.73;17.03;;;12.40;1.00;;;;;;5012859;28;20170;-81
2022/05/01 08:34:09;;;;;;;21.17;17.20;;;12.50;1.00;;;;;;5014759;28;20170;-83
2022/05/01 08:36:36;;;;;;;21.00;17.10;;;12.70;1.00;;;;;;5034958;28;20182;-81
2022/05/01 08:39:02;;;;;;;14.73;12.77;;;12.90;1.00;;;;;;5037443;28;20170;-80
2022/05/01 08:41:31;;;;;;;15.23;12.17;;;12.90;1.00;;;;;;5046995;28;20178;-82
2022/05/01 08:43:58;;;;;;;16.57;12.00;;;12.90;1.00;;;;;;5044934;28;20220;-83
2022/05/01 08:46:53;;;;;;;13.40;11.33;;;12.80;1.00;;;;;;5040085;28;20257;-84
2022/05/01 08:49:20;;;;;;;13.73;11.60;;;12.50;1.00;;;;;;5035138;28;20180;-83
2022/05/01 08:51:46;;;;;;;13.93;11.73;;;12.50;1.00;;;;;;5034991;28;20678;-83
2022/05/01 08:54:14;;;;;;;12.40;9.77;;;12.80;1.00;;;;;;5037913;28;20162;-81
2022/05/01 08:56:41;;;;;;;14.67;11.53;;;13.00;99.90;;;;;;5038136;28;20182;-83
2022/05/01 08:59:12;;;;;;;14.00;11.73;;;13.00;99.90;;;;;;5037582;28;20182;-82
2022/05/01 09:01:39;;;;;;;14.13;11.03;;;12.90;99.90;;;;;;5031812;28;20206;-83
2022/05/01 09:04:09;;;;;;;9.60;8.57;;;13.10;99.90;;;;;;5032424;28;20210;-82
2022/05/01 09:06:36;;;;;;;13.10;10.50;;;13.20;99.90;;;;;;5032719;28;20195;-84
2022/05/01 09:09:06;;;;;;;11.90;10.60;;;13.20;1.00;;;;;;5017114;28;20166;-81
2022/05/01 09:14:16;;;;;;;17.60;11.87;;;13.40;1.00;;;;;;5019301;28;20230;-85
2022/05/01 09:16:42;;;;;;;11.23;8.60;;;13.80;99.90;;;;;;5033117;28;20239;-81
2022/05/01 09:19:07;;;;;;;11.03;8.63;;;13.90;1.00;;;;;;5041745;28;20186;-84
2022/05/01 09:21:50;;;;;;;11.17;7.80;;;14.20;99.90;;;;;;5052656;28;20180;-82
2022/05/01 09:24:28;;;;;;;8.40;7.13;;;14.50;1.00;;;;;;5052654;28;20207;-83
2022/05/01 09:26:58;;;;;;;8.77;6.93;;;14.30;99.90;;;;;;5050125;28;20198;-83
2022/05/01 09:29:32;;;;;;;9.00;6.77;;;14.20;23.10;;;;;;5055595;28;20266;-82
2022/05/01 09:32:00;;;;;;;9.83;6.40;;;13.90;99.90;;;;;;5055454;28;20177;-82
2022/05/01 09:34:35;;;;;;;6.27;5.50;;;13.80;99.90;;;;;;5051374;28;20272;-83
2022/05/01 09:37:18;;;;;;;6.53;5.83;;;14.00;99.90;;;;;;5044250;28;20245;-82
2022/05/01 09:39:51;;;;;;;7.93;6.57;;;13.80;1.00;;;;;;5043205;28;20164;-83
2022/05/01 09:42:25;;;;;;;6.97;6.27;;;13.90;1.00;;;;;;5032249;28;20195;-81
2022/05/01 09:45:14;;;;;;;6.13;4.97;;;14.00;99.90;;;;;;5016116;28;20307;-83
2022/05/01 09:47:46;;;;;;;6.60;5.07;;;14.40;99.90;;;;;;5039606;28;20177;-84
2022/05/01 09:50:14;;;;;;;5.90;4.40;;;14.30;99.90;;;;;;5038279;28;20157;-83
2022/05/01 09:53:00;;;;;;;6.27;5.67;;;14.50;1.00;;;;;;5034567;28;20183;-83
2022/05/01 09:55:28;;;;;;;7.23;5.43;;;14.40;1.00;;;;;;5035176;28;20539;-82
2022/05/01 09:58:14;;;;;;;7.57;5.43;;;14.20;1.00;;;;;;5035194;28;20694;-82
2022/05/01 10:00:45;;;;;;;6.73;5.30;;;14.20;1.00;;;;;;5032390;28;20788;-82
2022/05/01 10:03:22;;;;;;;6.57;4.90;;;14.30;1.00;;;;;;5028524;28;20559;-81
2022/05/01 10:05:49;;;;;;;6.13;5.53;;;14.20;1.00;;;;;;5033452;28;20186;-82
2022/05/01 10:08:18;;;;;;;8.07;5.80;;;14.20;99.90;;;;;;5033587;28;20175;-82
2022/05/01 10:10:46;;;;;;;7.03;5.57;;;14.30;99.90;;;;;;5032082;28;20177;-83
2022/05/01 10:13:13;;;;;;;7.83;5.40;;;14.50;99.90;;;;;;5025725;28;20260;-83
2022/05/01 10:15:39;;;;;;;5.90;5.13;;;14.40;99.90;;;;;;5028312;28;20195;-83
2022/05/01 10:18:06;;;;;;;6.83;4.80;;;14.10;99.90;;;;;;5039004;28;20579;-82
2022/05/01 10:20:34;;;;;;;6.57;4.73;;;14.10;99.90;;;;;;5050026;28;20223;-82
2022/05/01 10:23:03;;;;;;;6.67;4.43;;;14.10;99.90;;;;;;5021177;28;20676;-84
2022/05/01 10:25:32;;;;;;;6.53;4.90;;;14.00;1.00;;;;;;5039205;28;20167;-84
2022/05/01 10:28:12;;;;;;;6.67;5.37;;;14.20;88.00;;;;;;5036404;28;20862;-83
2022/05/01 10:33:45;;;;;;;8.43;5.37;;;13.70;99.90;;;;;;5027946;28;20246;-84
2022/05/01 10:36:36;;;;;;;7.77;5.00;;;14.00;99.90;;;;;;5030533;28;20257;-84
2022/05/01 10:39:06;;;;;;;7.30;5.37;;;14.60;49.00;;;;;;5014315;28;20174;-83
2022/05/01 10:41:33;;;;;;;7.37;5.27;;;15.00;1.00;;;;;;5015996;28;20615;-83
2022/05/01 10:44:00;;;;;;;5.83;5.10;;;15.50;1.00;;;;;;5013669;28;20210;-84
2022/05/01 10:46:28;;;;;;;9.13;5.30;;;15.70;1.00;;;;;;5022795;28;20184;-84
2022/05/01 10:48:58;;;;;;;6.67;4.97;;;15.70;99.90;;;;;;5036361;28;20177;-84
2022/05/01 10:51:38;;;;;;;6.27;5.17;;;15.50;99.90;;;;;;5035832;28;20572;-81
2022/05/01 10:54:10;;;;;;;7.00;5.40;;;15.50;99.90;;;;;;5035160;28;20177;-81
2022/05/01 10:56:37;;;;;;;6.70;5.43;;;15.10;99.90;;;;;;5039111;28;20200;-84
2022/05/01 10:59:34;;;;;;;6.03;5.43;;;14.80;1.00;;;;;;5040256;28;20191;-82
2022/05/01 11:02:06;;;;;;;6.07;5.47;;;14.90;1.00;;;;;;5036917;28;20189;-83
2022/05/01 11:04:41;;;;;;;7.63;5.40;;;15.40;1.00;;;;;;5038913;28;20205;-81
2022/05/01 11:07:13;;;;;;;7.00;5.57;;;15.60;1.00;;;;;;5043558;28;20230;-83
2022/05/01 11:09:44;;;;;;;7.43;5.67;;;15.70;99.90;;;;;;5035554;28;20157;-82
2022/05/01 11:12:13;;;;;;;7.87;5.57;;;16.10;99.90;;;;;;5034547;28;20201;-83
2022/05/01 11:14:40;;;;;;;9.33;6.87;;;16.40;99.90;;;;;;5034281;28;20181;-81
2022/05/01 11:17:08;;;;;;;8.37;6.87;;;16.00;1.00;;;;;;5035277;28;20272;-83
2022/05/01 11:19:51;;;;;;;7.03;6.33;;;15.60;1.00;;;;;;5034324;28;20173;-82
2022/05/01 11:22:25;;;;;;;9.70;7.70;;;15.30;1.00;;;;;;5023387;28;20331;-81
2022/05/01 11:24:51;;;;;;;7.63;6.53;;;15.40;1.00;;;;;;5015706;28;20178;-82
2022/05/01 11:27:18;;;;;;;8.10;6.17;;;15.40;1.00;;;;;;5017082;28;20162;-81
2022/05/01 11:30:22;;;;;;;8.57;7.17;;;15.60;1.00;;;;;;5015524;28;20174;-80
2022/05/01 11:32:52;;;;;;;9.10;6.47;;;15.90;1.00;;;;;;5016679;28;20614;-81
2022/05/01 11:35:21;;;;;;;7.47;6.33;;;15.70;1.00;;;;;;5017380;28;20174;-82
2022/05/01 11:37:50;;;;;;;8.03;6.70;;;15.40;1.00;;;;;;5014833;28;20166;-81
2022/05/01 11:40:22;;;;;;;9.97;6.53;;;15.20;1.00;;;;;;5015316;28;20493;-81
2022/05/01 11:42:50;;;;;;;9.20;7.03;;;15.20;1.00;;;;;;5015802;28;20240;-83
2022/05/01 11:45:18;;;;;;;8.10;6.30;;;15.50;1.00;;;;;;4998204;28;20182;-82
2022/05/01 11:47:48;;;;;;;6.93;6.03;;;15.50;1.00;;;;;;5031389;28;20178;-80
2022/05/01 11:50:19;;;;;;;9.90;6.40;;;15.60;1.00;;;;;;5035047;28;20545;-84
2022/05/01 11:52:49;;;;;;;10.47;6.70;;;15.50;1.00;;;;;;5035171;28;20208;-82
2022/05/01 11:55:18;;;;;;;8.63;7.20;;;15.30;1.00;;;;;;5034904;28;20215;-83
2022/05/01 12:03:29;;;;;;;8.67;6.90;;;15.20;1.00;;;;;;5034884;28;20216;-81
2022/05/01 12:05:55;;;;;;;7.80;7.00;;;15.60;1.00;;;;;;5034812;28;20169;-81
2022/05/01 12:08:22;;;;;;;9.30;7.57;;;15.80;1.00;;;;;;5036461;28;20188;-84
2022/05/01 12:10:48;;;;;;;9.90;7.20;;;15.90;1.00;;;;;;5038997;28;20175;-83
2022/05/01 12:13:21;;;;;;;12.10;7.50;;;16.20;1.00;;;;;;5038906;28;20207;-83
2022/05/01 12:15:49;;;;;;;7.73;6.60;;;16.40;1.00;;;;;;5039264;28;20677;-82
2022/05/01 12:18:16;;;;;;;7.90;7.10;;;16.10;99.90;;;;;;5038113;28;20182;-84
2022/05/01 12:20:42;;;;;;;8.40;6.33;;;16.00;99.90;;;;;;5039907;28;20168;-83
2022/05/01 12:23:12;;;;;;;8.40;6.70;;;15.80;99.90;;;;;;5038651;28;20194;-82
2022/05/01 12:25:41;;;;;;;8.73;7.43;;;15.60;1.00;;;;;;5070636;28;20169;-78
2022/05/01 12:28:11;;;;;;;7.87;7.07;;;15.50;1.00;;;;;;5059594;28;20170;-80
2022/05/01 12:30:38;;;;;;;9.50;7.07;;;15.50;99.90;;;;;;5075525;28;20181;-84
2022/05/01 12:33:04;;;;;;;7.80;6.80;;;15.50;1.00;;;;;;5058359;28;20160;-80
2022/05/01 12:35:58;;;;;;;7.90;6.70;;;15.50;1.00;;;;;;5045127;28;20169;-83
2022/05/01 12:38:27;;;;;;;7.97;7.17;;;15.80;1.00;;;;;;5043937;28;20173;-82
2022/05/01 12:43:53;;;;;;;7.40;6.43;;;16.30;99.90;;;;;;5041189;28;20272;-84
2022/05/01 12:46:29;;;;;;;7.60;6.13;;;16.00;99.90;;;;;;5039873;28;20177;-83
2022/05/01 12:49:02;;;;;;;8.17;6.80;;;15.60;1.00;;;;;;5065320;28;20168;-84
2022/05/01 12:51:41;;;;;;;9.97;7.37;;;15.20;1.00;;;;;;5070034;28;20185;-82
2022/05/01 12:54:16;;;;;;;8.77;7.03;;;15.10;1.00;;;;;;5069168;28;20621;-84
2022/05/01 12:56:43;;;;;;;9.33;7.97;;;15.30;1.00;;;;;;5065542;28;20173;-80
2022/05/01 12:59:27;;;;;;;10.27;8.30;;;15.70;1.00;;;;;;5067589;28;20169;-82
2022/05/01 13:01:56;;;;;;;11.13;7.77;;;16.10;1.00;;;;;;5037057;28;20196;-82
2022/05/01 13:04:26;;;;;;;14.27;12.80;;;16.40;99.90;;;;;;5037115;28;20252;-84
2022/05/01 13:06:53;;;;;;;10.57;9.40;;;16.30;99.90;;;;;;5036674;28;20546;-82
2022/05/01 13:09:20;;;;;;;9.20;6.97;;;16.40;99.90;;;;;;5036709;28;20225;-83
2022/05/01 13:12:06;;;;;;;10.23;7.77;;;16.20;99.90;;;;;;5037665;28;20166;-83
2022/05/01 13:14:33;;;;;;;10.33;8.70;;;16.20;99.90;;;;;;5044567;28;20323;-82
2022/05/01 13:17:17;;;;;;;12.03;9.43;;;16.30;99.90;;;;;;5057971;28;20205;-84
2022/05/01 13:19:44;;;;;;;10.60;9.33;;;16.30;99.90;;;;;;5036756;28;20267;-83
2022/05/01 13:22:11;;;;;;;9.07;7.47;;;16.70;99.90;;;;;;5041708;28;20162;-82
2022/05/01 13:24:39;;;;;;;8.40;7.40;;;16.80;99.90;;;;;;5038740;28;20202;-83
2022/05/01 13:27:09;;;;;;;7.83;7.13;;;16.80;99.90;;;;;;5039534;28;20283;-81